sensor_id;sensor_type;location;lat;lon;timestamp;P1;durP1;ratioP1;P2;durP2;ratioP2
72813;SDS011;60945;48.516;-2.768;2023-03-01T00:01:09;18.65;;;16.33;;
72813;SDS011;60945;48.516;-2.768;2023-03-01T00:03:37;21.38;;;16.65;;
72813;SDS011;60945;48.516;-2.768;2023-03-01T00:06:03;19.77;;;16.55;;
72813;SDS011;60945;48.516;-2.768;2023-03-01T00:08:30;21.45;;;17.33;;
72813;SDS011;60945;48.516;-2.768;2023-03-01T00:13:28;26.77;;;18.75;;
72813;SDS011;60945;48.516;-2.768;2023-03-01T00:15:54;23.67;;;18.42;;
72813;SDS011;60945;48.516;-2.768;2023-03-01T00:18:20;28.20;;;19.80;;
72813;SDS011;60945;48.516;-2.768;2023-03-01T00:20:49;27.63;;;18.33;;
72813;SDS011;60945;48.516;-2.768;2023-03-01T00:23:16;26.13;;;18.52;;
72813;SDS011;60945;48.516;-2.768;2023-03-01T00:25:42;25.45;;;18.27;;
72813;SDS011;60945;48.516;-2.768;2023-03-01T00:28:08;24.42;;;18.77;;
72813;SDS011;60945;48.516;-2.768;2023-03-01T00:30:34;23.70;;;16.95;;
72813;SDS011;60945;48.516;-2.768;2023-03-01T00:32:59;22.92;;;17.98;;
72813;SDS011;60945;48.516;-2.768;2023-03-01T00:35:25;24.90;;;17.75;;
72813;SDS011;60945;48.516;-2.768;2023-03-01T00:37:51;25.38;;;18.98;;
72813;SDS011;60945;48.516;-2.768;2023-03-01T00:40:23;28.98;;;18.52;;
72813;SDS011;60945;48.516;-2.768;2023-03-01T00:42:49;23.65;;;18.60;;
72813;SDS011;60945;48.516;-2.768;2023-03-01T00:45:15;25.63;;;18.50;;
72813;SDS011;60945;48.516;-2.768;2023-03-01T00:47:41;24.50;;;18.92;;
72813;SDS011;60945;48.516;-2.768;2023-03-01T00:50:07;25.63;;;19.60;;
72813;SDS011;60945;48.516;-2.768;2023-03-01T00:52:33;26.05;;;19.15;;
72813;SDS011;60945;48.516;-2.768;2023-03-01T00:54:59;26.60;;;20.00;;
72813;SDS011;60945;48.516;-2.768;2023-03-01T00:57:25;27.23;;;18.75;;
72813;SDS011;60945;48.516;-2.768;2023-03-01T00:59:51;25.15;;;18.23;;
72813;SDS011;60945;48.516;-2.768;2023-03-01T01:02:17;27.35;;;19.00;;
72813;SDS011;60945;48.516;-2.768;2023-03-01T01:04:44;24.50;;;18.52;;
72813;SDS011;60945;48.516;-2.768;2023-03-01T01:07:10;22.90;;;18.42;;
72813;SDS011;60945;48.516;-2.768;2023-03-01T01:09:36;26.73;;;19.45;;
72813;SDS011;60945;48.516;-2.768;2023-03-01T01:12:02;23.50;;;18.58;;
72813;SDS011;60945;48.516;-2.768;2023-03-01T01:14:28;23.88;;;20.05;;
72813;SDS011;60945;48.516;-2.768;2023-03-01T01:16:54;24.48;;;18.67;;
72813;SDS011;60945;48.516;-2.768;2023-03-01T01:19:20;24.65;;;19.63;;
72813;SDS011;60945;48.516;-2.768;2023-03-01T01:21:46;25.10;;;19.13;;
72813;SDS011;60945;48.516;-2.768;2023-03-01T01:24:13;24.38;;;19.17;;
72813;SDS011;60945;48.516;-2.768;2023-03-01T01:26:39;21.60;;;18.33;;
72813;SDS011;60945;48.516;-2.768;2023-03-01T01:29:06;22.95;;;19.08;;
72813;SDS011;60945;48.516;-2.768;2023-03-01T01:31:32;21.95;;;18.23;;
72813;SDS011;60945;48.516;-2.768;2023-03-01T01:34:00;24.40;;;17.73;;
72813;SDS011;60945;48.516;-2.768;2023-03-01T01:36:26;24.15;;;17.30;;
72813;SDS011;60945;48.516;-2.768;2023-03-01T01:38:52;22.42;;;18.17;;
72813;SDS011;60945;48.516;-2.768;2023-03-01T01:41:19;21.27;;;16.25;;
72813;SDS011;60945;48.516;-2.768;2023-03-01T01:44:08;20.67;;;16.85;;
72813;SDS011;60945;48.516;-2.768;2023-03-01T01:46:40;21.42;;;17.92;;
72813;SDS011;60945;48.516;-2.768;2023-03-01T01:51:48;24.52;;;16.83;;
72813;SDS011;60945;48.516;-2.768;2023-03-01T01:54:23;20.23;;;16.73;;
72813;SDS011;60945;48.516;-2.768;2023-03-01T01:56:55;21.20;;;16.35;;
72813;SDS011;60945;48.516;-2.768;2023-03-01T01:59:25;20.50;;;16.33;;
72813;SDS011;60945;48.516;-2.768;2023-03-01T02:01:53;20.83;;;16.00;;
72813;SDS011;60945;48.516;-2.768;2023-03-01T02:04:20;22.33;;;16.10;;
72813;SDS011;60945;48.516;-2.768;2023-03-01T02:06:51;20.98;;;16.55;;
72813;SDS011;60945;48.516;-2.768;2023-03-01T02:09:48;19.45;;;16.67;;
72813;SDS011;60945;48.516;-2.768;2023-03-01T02:12:18;18.77;;;16.05;;
72813;SDS011;60945;48.516;-2.768;2023-03-01T02:14:46;19.45;;;16.65;;
72813;SDS011;60945;48.516;-2.768;2023-03-01T02:17:12;20.95;;;16.60;;
72813;SDS011;60945;48.516;-2.768;2023-03-01T02:30:13;19.98;;;16.48;;
72813;SDS011;60945;48.516;-2.768;2023-03-01T02:32:40;23.77;;;17.50;;
72813;SDS011;60945;48.516;-2.768;2023-03-01T02:35:07;23.48;;;16.73;;
72813;SDS011;60945;48.516;-2.768;2023-03-01T02:37:38;20.27;;;16.27;;
72813;SDS011;60945;48.516;-2.768;2023-03-01T02:40:07;21.55;;;17.15;;
72813;SDS011;60945;48.516;-2.768;2023-03-01T02:42:43;22.17;;;16.73;;
72813;SDS011;60945;48.516;-2.768;2023-03-01T02:45:21;19.70;;;16.98;;
72813;SDS011;60945;48.516;-2.768;2023-03-01T02:47:48;22.45;;;17.85;;
72813;SDS011;60945;48.516;-2.768;2023-03-01T02:50:17;22.63;;;17.58;;
72813;SDS011;60945;48.516;-2.768;2023-03-01T02:55:26;22.98;;;18.13;;
72813;SDS011;60945;48.516;-2.768;2023-03-01T02:57:52;20.85;;;16.92;;
72813;SDS011;60945;48.516;-2.768;2023-03-01T03:00:27;24.15;;;18.35;;
72813;SDS011;60945;48.516;-2.768;2023-03-01T03:02:59;23.13;;;18.08;;
72813;SDS011;60945;48.516;-2.768;2023-03-01T03:05:26;21.73;;;17.20;;
72813;SDS011;60945;48.516;-2.768;2023-03-01T03:07:55;21.65;;;17.52;;
72813;SDS011;60945;48.516;-2.768;2023-03-01T03:10:23;24.83;;;17.90;;
72813;SDS011;60945;48.516;-2.768;2023-03-01T03:13:02;24.55;;;17.25;;
72813;SDS011;60945;48.516;-2.768;2023-03-01T03:15:29;21.60;;;17.27;;
72813;SDS011;60945;48.516;-2.768;2023-03-01T03:17:55;22.95;;;16.95;;
72813;SDS011;60945;48.516;-2.768;2023-03-01T03:20:23;22.65;;;17.80;;
72813;SDS011;60945;48.516;-2.768;2023-03-01T03:22:52;21.50;;;17.33;;
72813;SDS011;60945;48.516;-2.768;2023-03-01T03:25:19;20.50;;;16.27;;
72813;SDS011;60945;48.516;-2.768;2023-03-01T03:27:47;21.42;;;16.63;;
72813;SDS011;60945;48.516;-2.768;2023-03-01T03:30:15;20.83;;;15.85;;
72813;SDS011;60945;48.516;-2.768;2023-03-01T03:32:46;20.88;;;16.35;;
72813;SDS011;60945;48.516;-2.768;2023-03-01T03:35:18;21.48;;;16.45;;
72813;SDS011;60945;48.516;-2.768;2023-03-01T03:37:55;22.42;;;17.45;;
72813;SDS011;60945;48.516;-2.768;2023-03-01T03:40:28;19.45;;;16.33;;
72813;SDS011;60945;48.516;-2.768;2023-03-01T03:42:56;18.50;;;15.77;;
72813;SDS011;60945;48.516;-2.768;2023-03-01T03:45:21;21.42;;;15.65;;
72813;SDS011;60945;48.516;-2.768;2023-03-01T03:47:47;21.40;;;15.45;;
72813;SDS011;60945;48.516;-2.768;2023-03-01T03:50:13;18.73;;;15.13;;
72813;SDS011;60945;48.516;-2.768;2023-03-01T03:52:41;19.33;;;14.70;;
72813;SDS011;60945;48.516;-2.768;2023-03-01T03:55:07;19.38;;;14.73;;
72813;SDS011;60945;48.516;-2.768;2023-03-01T03:57:35;17.95;;;14.35;;
72813;SDS011;60945;48.516;-2.768;2023-03-01T04:00:02;17.15;;;14.85;;
72813;SDS011;60945;48.516;-2.768;2023-03-01T04:02:30;20.90;;;14.82;;
72813;SDS011;60945;48.516;-2.768;2023-03-01T04:04:56;18.40;;;16.58;;
72813;SDS011;60945;48.516;-2.768;2023-03-01T04:07:21;17.38;;;14.98;;
72813;SDS011;60945;48.516;-2.768;2023-03-01T04:09:47;16.98;;;14.40;;
72813;SDS011;60945;48.516;-2.768;2023-03-01T04:12:13;18.27;;;13.57;;
72813;SDS011;60945;48.516;-2.768;2023-03-01T04:14:39;17.73;;;14.20;;
72813;SDS011;60945;48.516;-2.768;2023-03-01T04:17:05;16.80;;;14.18;;
72813;SDS011;60945;48.516;-2.768;2023-03-01T04:19:31;17.60;;;13.88;;
72813;SDS011;60945;48.516;-2.768;2023-03-01T04:22:01;16.92;;;13.90;;
72813;SDS011;60945;48.516;-2.768;2023-03-01T04:24:34;17.33;;;14.32;;
72813;SDS011;60945;48.516;-2.768;2023-03-01T04:27:00;16.35;;;13.13;;
72813;SDS011;60945;48.516;-2.768;2023-03-01T04:29:26;18.67;;;14.80;;
72813;SDS011;60945;48.516;-2.768;2023-03-01T04:31:51;17.17;;;14.07;;
72813;SDS011;60945;48.516;-2.768;2023-03-01T04:34:17;16.70;;;14.73;;
72813;SDS011;60945;48.516;-2.768;2023-03-01T04:36:43;19.40;;;14.68;;
72813;SDS011;60945;48.516;-2.768;2023-03-01T04:39:09;18.33;;;15.45;;
72813;SDS011;60945;48.516;-2.768;2023-03-01T04:41:38;18.63;;;16.02;;
72813;SDS011;60945;48.516;-2.768;2023-03-01T04:44:05;17.80;;;15.95;;
72813;SDS011;60945;48.516;-2.768;2023-03-01T04:46:31;21.25;;;15.73;;
72813;SDS011;60945;48.516;-2.768;2023-03-01T04:48:57;19.30;;;16.77;;
72813;SDS011;60945;48.516;-2.768;2023-03-01T04:51:23;17.95;;;15.85;;
72813;SDS011;60945;48.516;-2.768;2023-03-01T04:53:49;21.88;;;14.63;;
72813;SDS011;60945;48.516;-2.768;2023-03-01T04:56:17;18.27;;;15.77;;
72813;SDS011;60945;48.516;-2.768;2023-03-01T04:58:43;18.48;;;16.48;;
72813;SDS011;60945;48.516;-2.768;2023-03-01T05:01:10;19.40;;;17.25;;
72813;SDS011;60945;48.516;-2.768;2023-03-01T05:03:49;17.48;;;15.65;;
72813;SDS011;60945;48.516;-2.768;2023-03-01T05:06:16;19.70;;;16.67;;
72813;SDS011;60945;48.516;-2.768;2023-03-01T05:08:43;19.75;;;16.42;;
72813;SDS011;60945;48.516;-2.768;2023-03-01T05:11:09;17.80;;;15.95;;
72813;SDS011;60945;48.516;-2.768;2023-03-01T05:13:36;19.67;;;17.58;;
72813;SDS011;60945;48.516;-2.768;2023-03-01T05:16:04;16.70;;;15.05;;
72813;SDS011;60945;48.516;-2.768;2023-03-01T05:18:31;19.58;;;17.45;;
72813;SDS011;60945;48.516;-2.768;2023-03-01T05:21:07;19.10;;;16.10;;
72813;SDS011;60945;48.516;-2.768;2023-03-01T05:23:35;17.85;;;15.85;;
72813;SDS011;60945;48.516;-2.768;2023-03-01T05:26:02;16.45;;;14.68;;
72813;SDS011;60945;48.516;-2.768;2023-03-01T05:28:29;17.33;;;14.77;;
72813;SDS011;60945;48.516;-2.768;2023-03-01T05:30:56;18.15;;;16.10;;
72813;SDS011;60945;48.516;-2.768;2023-03-01T05:33:22;14.90;;;13.48;;
72813;SDS011;60945;48.516;-2.768;2023-03-01T05:35:49;15.25;;;13.65;;
72813;SDS011;60945;48.516;-2.768;2023-03-01T05:38:16;14.57;;;13.10;;
72813;SDS011;60945;48.516;-2.768;2023-03-01T05:40:43;15.98;;;13.93;;
72813;SDS011;60945;48.516;-2.768;2023-03-01T05:43:11;20.60;;;18.77;;
72813;SDS011;60945;48.516;-2.768;2023-03-01T05:45:38;15.93;;;11.30;;
72813;SDS011;60945;48.516;-2.768;2023-03-01T05:48:05;16.90;;;11.93;;
72813;SDS011;60945;48.516;-2.768;2023-03-01T05:50:33;13.85;;;11.45;;
72813;SDS011;60945;48.516;-2.768;2023-03-01T05:53:01;12.27;;;10.70;;
72813;SDS011;60945;48.516;-2.768;2023-03-01T05:55:33;17.90;;;16.60;;
72813;SDS011;60945;48.516;-2.768;2023-03-01T05:57:59;12.90;;;11.18;;
72813;SDS011;60945;48.516;-2.768;2023-03-01T06:00:26;12.02;;;10.68;;
72813;SDS011;60945;48.516;-2.768;2023-03-01T06:02:53;13.70;;;11.20;;
72813;SDS011;60945;48.516;-2.768;2023-03-01T06:05:20;13.23;;;10.65;;
72813;SDS011;60945;48.516;-2.768;2023-03-01T06:07:45;12.05;;;10.77;;
72813;SDS011;60945;48.516;-2.768;2023-03-01T06:10:12;13.57;;;12.07;;
72813;SDS011;60945;48.516;-2.768;2023-03-01T06:12:38;13.98;;;10.48;;
72813;SDS011;60945;48.516;-2.768;2023-03-01T06:15:06;14.13;;;10.32;;
72813;SDS011;60945;48.516;-2.768;2023-03-01T06:17:34;13.00;;;11.55;;
72813;SDS011;60945;48.516;-2.768;2023-03-01T06:20:06;12.25;;;11.05;;
72813;SDS011;60945;48.516;-2.768;2023-03-01T06:22:32;10.65;;;9.65;;
72813;SDS011;60945;48.516;-2.768;2023-03-01T06:24:58;12.25;;;10.98;;
72813;SDS011;60945;48.516;-2.768;2023-03-01T06:27:23;12.60;;;11.30;;
72813;SDS011;60945;48.516;-2.768;2023-03-01T06:29:49;12.20;;;10.98;;
72813;SDS011;60945;48.516;-2.768;2023-03-01T06:32:15;12.15;;;10.90;;
72813;SDS011;60945;48.516;-2.768;2023-03-01T06:34:41;12.02;;;10.30;;
72813;SDS011;60945;48.516;-2.768;2023-03-01T06:37:07;12.40;;;10.68;;
72813;SDS011;60945;48.516;-2.768;2023-03-01T06:39:33;13.15;;;11.32;;
72813;SDS011;60945;48.516;-2.768;2023-03-01T06:41:59;16.38;;;14.88;;
72813;SDS011;60945;48.516;-2.768;2023-03-01T06:44:25;12.27;;;11.07;;
72813;SDS011;60945;48.516;-2.768;2023-03-01T06:46:51;11.63;;;10.15;;
72813;SDS011;60945;48.516;-2.768;2023-03-01T06:49:16;12.43;;;10.65;;
72813;SDS011;60945;48.516;-2.768;2023-03-01T06:51:43;17.75;;;16.15;;
72813;SDS011;60945;48.516;-2.768;2023-03-01T06:54:09;12.32;;;10.90;;
72813;SDS011;60945;48.516;-2.768;2023-03-01T06:56:35;18.65;;;17.05;;
72813;SDS011;60945;48.516;-2.768;2023-03-01T06:59:01;12.27;;;10.80;;
72813;SDS011;60945;48.516;-2.768;2023-03-01T07:01:30;12.07;;;10.68;;
72813;SDS011;60945;48.516;-2.768;2023-03-01T07:03:56;13.45;;;11.45;;
72813;SDS011;60945;48.516;-2.768;2023-03-01T07:06:23;16.88;;;15.25;;
72813;SDS011;60945;48.516;-2.768;2023-03-01T07:08:48;12.63;;;10.45;;
72813;SDS011;60945;48.516;-2.768;2023-03-01T07:11:14;13.07;;;10.45;;
72813;SDS011;60945;48.516;-2.768;2023-03-01T07:13:40;12.50;;;10.35;;
72813;SDS011;60945;48.516;-2.768;2023-03-01T07:16:06;18.08;;;16.27;;
72813;SDS011;60945;48.516;-2.768;2023-03-01T07:18:32;16.95;;;15.25;;
72813;SDS011;60945;48.516;-2.768;2023-03-01T07:20:58;15.27;;;13.93;;
72813;SDS011;60945;48.516;-2.768;2023-03-01T07:23:32;15.55;;;13.88;;
72813;SDS011;60945;48.516;-2.768;2023-03-01T07:25:58;11.80;;;10.55;;
72813;SDS011;60945;48.516;-2.768;2023-03-01T07:28:25;14.30;;;12.73;;
72813;SDS011;60945;48.516;-2.768;2023-03-01T07:30:51;21.58;;;19.33;;
72813;SDS011;60945;48.516;-2.768;2023-03-01T07:35:59;13.10;;;11.70;;
72813;SDS011;60945;48.516;-2.768;2023-03-01T07:38:27;15.48;;;12.85;;
72813;SDS011;60945;48.516;-2.768;2023-03-01T07:40:57;19.63;;;17.88;;
72813;SDS011;60945;48.516;-2.768;2023-03-01T07:43:27;16.90;;;12.98;;
72813;SDS011;60945;48.516;-2.768;2023-03-01T07:45:58;16.35;;;11.30;;
72813;SDS011;60945;48.516;-2.768;2023-03-01T07:48:25;19.23;;;17.25;;
72813;SDS011;60945;48.516;-2.768;2023-03-01T07:50:51;14.27;;;11.85;;
72813;SDS011;60945;48.516;-2.768;2023-03-01T07:53:17;15.27;;;12.32;;
72813;SDS011;60945;48.516;-2.768;2023-03-01T07:55:42;18.60;;;17.00;;
72813;SDS011;60945;48.516;-2.768;2023-03-01T07:58:08;16.25;;;12.38;;
72813;SDS011;60945;48.516;-2.768;2023-03-01T08:00:34;17.58;;;14.88;;
72813;SDS011;60945;48.516;-2.768;2023-03-01T08:03:00;18.95;;;16.90;;
72813;SDS011;60945;48.516;-2.768;2023-03-01T08:05:27;18.70;;;16.95;;
72813;SDS011;60945;48.516;-2.768;2023-03-01T08:07:53;25.52;;;14.07;;
72813;SDS011;60945;48.516;-2.768;2023-03-01T08:10:19;25.92;;;23.65;;
72813;SDS011;60945;48.516;-2.768;2023-03-01T08:12:45;22.35;;;13.27;;
72813;SDS011;60945;48.516;-2.768;2023-03-01T08:15:11;18.73;;;14.20;;
72813;SDS011;60945;48.516;-2.768;2023-03-01T08:17:37;16.33;;;14.82;;
72813;SDS011;60945;48.516;-2.768;2023-03-01T08:20:03;16.42;;;13.00;;
72813;SDS011;60945;48.516;-2.768;2023-03-01T08:22:32;22.33;;;15.95;;
72813;SDS011;60945;48.516;-2.768;2023-03-01T08:24:58;23.25;;;21.17;;
72813;SDS011;60945;48.516;-2.768;2023-03-01T08:27:26;20.00;;;17.02;;
72813;SDS011;60945;48.516;-2.768;2023-03-01T08:29:52;16.30;;;14.52;;
72813;SDS011;60945;48.516;-2.768;2023-03-01T08:32:17;16.27;;;14.57;;
72813;SDS011;60945;48.516;-2.768;2023-03-01T08:34:45;15.23;;;13.63;;
72813;SDS011;60945;48.516;-2.768;2023-03-01T08:37:12;17.58;;;14.30;;
72813;SDS011;60945;48.516;-2.768;2023-03-01T08:39:45;15.93;;;14.02;;
72813;SDS011;60945;48.516;-2.768;2023-03-01T08:42:11;19.63;;;14.75;;
72813;SDS011;60945;48.516;-2.768;2023-03-01T08:44:37;16.42;;;14.65;;
72813;SDS011;60945;48.516;-2.768;2023-03-01T08:47:03;16.83;;;15.10;;
72813;SDS011;60945;48.516;-2.768;2023-03-01T08:49:29;16.95;;;15.05;;
72813;SDS011;60945;48.516;-2.768;2023-03-01T08:51:57;17.35;;;15.30;;
72813;SDS011;60945;48.516;-2.768;2023-03-01T08:54:23;17.13;;;15.48;;
72813;SDS011;60945;48.516;-2.768;2023-03-01T08:56:49;17.45;;;15.75;;
72813;SDS011;60945;48.516;-2.768;2023-03-01T08:59:17;17.35;;;15.55;;
72813;SDS011;60945;48.516;-2.768;2023-03-01T09:01:43;18.38;;;16.52;;
72813;SDS011;60945;48.516;-2.768;2023-03-01T09:04:10;18.05;;;16.23;;
72813;SDS011;60945;48.516;-2.768;2023-03-01T09:06:44;18.58;;;16.83;;
72813;SDS011;60945;48.516;-2.768;2023-03-01T09:09:12;18.23;;;16.42;;
72813;SDS011;60945;48.516;-2.768;2023-03-01T09:11:42;18.85;;;17.15;;
72813;SDS011;60945;48.516;-2.768;2023-03-01T09:14:11;18.23;;;16.42;;
72813;SDS011;60945;48.516;-2.768;2023-03-01T09:16:37;18.25;;;16.65;;
72813;SDS011;60945;48.516;-2.768;2023-03-01T09:19:03;19.70;;;17.70;;
72813;SDS011;60945;48.516;-2.768;2023-03-01T09:21:29;18.38;;;16.42;;
72813;SDS011;60945;48.516;-2.768;2023-03-01T09:23:55;19.13;;;17.42;;
72813;SDS011;60945;48.516;-2.768;2023-03-01T09:26:22;19.33;;;17.40;;
72813;SDS011;60945;48.516;-2.768;2023-03-01T09:28:49;20.23;;;18.23;;
72813;SDS011;60945;48.516;-2.768;2023-03-01T09:31:16;19.08;;;17.10;;
72813;SDS011;60945;48.516;-2.768;2023-03-01T09:33:45;20.13;;;18.33;;
72813;SDS011;60945;48.516;-2.768;2023-03-01T09:36:13;18.80;;;17.08;;
72813;SDS011;60945;48.516;-2.768;2023-03-01T09:38:44;19.90;;;18.08;;
72813;SDS011;60945;48.516;-2.768;2023-03-01T09:43:43;19.52;;;17.65;;
72813;SDS011;60945;48.516;-2.768;2023-03-01T09:46:18;18.33;;;16.73;;
72813;SDS011;60945;48.516;-2.768;2023-03-01T09:49:48;19.58;;;17.77;;
72813;SDS011;60945;48.516;-2.768;2023-03-01T09:51:47;17.63;;;16.08;;
72813;SDS011;60945;48.516;-2.768;2023-03-01T09:54:23;19.35;;;17.60;;
72813;SDS011;60945;48.516;-2.768;2023-03-01T09:56:53;19.33;;;17.30;;
72813;SDS011;60945;48.516;-2.768;2023-03-01T09:59:36;20.13;;;17.80;;
72813;SDS011;60945;48.516;-2.768;2023-03-01T10:02:23;19.13;;;17.38;;
72813;SDS011;60945;48.516;-2.768;2023-03-01T10:05:05;19.80;;;18.00;;
72813;SDS011;60945;48.516;-2.768;2023-03-01T10:08:02;20.88;;;18.98;;
72813;SDS011;60945;48.516;-2.768;2023-03-01T10:10:51;21.40;;;17.38;;
72813;SDS011;60945;48.516;-2.768;2023-03-01T10:18:30;20.63;;;16.95;;
72813;SDS011;60945;48.516;-2.768;2023-03-01T10:20:59;17.73;;;15.90;;
72813;SDS011;60945;48.516;-2.768;2023-03-01T10:23:28;18.55;;;16.02;;
72813;SDS011;60945;48.516;-2.768;2023-03-01T10:29:06;20.50;;;16.73;;
72813;SDS011;60945;48.516;-2.768;2023-03-01T10:34:17;24.15;;;17.83;;
72813;SDS011;60945;48.516;-2.768;2023-03-01T10:36:53;20.52;;;15.88;;
72813;SDS011;60945;48.516;-2.768;2023-03-01T10:39:22;18.98;;;16.30;;
72813;SDS011;60945;48.516;-2.768;2023-03-01T10:41:54;20.50;;;18.30;;
72813;SDS011;60945;48.516;-2.768;2023-03-01T10:44:37;28.50;;;26.00;;
72813;SDS011;60945;48.516;-2.768;2023-03-01T10:47:03;22.95;;;20.55;;
72813;SDS011;60945;48.516;-2.768;2023-03-01T10:49:29;19.75;;;16.75;;
72813;SDS011;60945;48.516;-2.768;2023-03-01T10:51:58;18.95;;;16.30;;
72813;SDS011;60945;48.516;-2.768;2023-03-01T10:54:43;19.80;;;16.30;;
72813;SDS011;60945;48.516;-2.768;2023-03-01T10:57:31;18.48;;;16.15;;
72813;SDS011;60945;48.516;-2.768;2023-03-01T11:02:51;19.45;;;15.18;;
72813;SDS011;60945;48.516;-2.768;2023-03-01T11:05:28;21.35;;;19.15;;
72813;SDS011;60945;48.516;-2.768;2023-03-01T11:07:58;22.48;;;17.55;;
72813;SDS011;60945;48.516;-2.768;2023-03-01T11:10:26;21.85;;;17.63;;
72813;SDS011;60945;48.516;-2.768;2023-03-01T11:12:53;19.70;;;15.38;;
72813;SDS011;60945;48.516;-2.768;2023-03-01T11:15:33;19.85;;;16.20;;
72813;SDS011;60945;48.516;-2.768;2023-03-01T11:17:59;19.55;;;16.02;;
72813;SDS011;60945;48.516;-2.768;2023-03-01T11:20:35;23.95;;;21.52;;
72813;SDS011;60945;48.516;-2.768;2023-03-01T11:23:03;25.50;;;22.90;;
72813;SDS011;60945;48.516;-2.768;2023-03-01T11:25:37;20.23;;;16.58;;
72813;SDS011;60945;48.516;-2.768;2023-03-01T11:28:07;20.52;;;17.38;;
72813;SDS011;60945;48.516;-2.768;2023-03-01T11:30:49;20.50;;;16.42;;
72813;SDS011;60945;48.516;-2.768;2023-03-01T11:33:37;24.85;;;21.73;;
72813;SDS011;60945;48.516;-2.768;2023-03-01T11:42:00;18.92;;;15.77;;
72813;SDS011;60945;48.516;-2.768;2023-03-01T11:44:48;22.23;;;19.92;;
72813;SDS011;60945;48.516;-2.768;2023-03-01T11:55:41;21.55;;;16.38;;
72813;SDS011;60945;48.516;-2.768;2023-03-01T11:58:48;22.88;;;18.00;;
72813;SDS011;60945;48.516;-2.768;2023-03-01T12:07:03;19.27;;;16.52;;
72813;SDS011;60945;48.516;-2.768;2023-03-01T12:12:36;20.70;;;16.65;;
72813;SDS011;60945;48.516;-2.768;2023-03-01T12:26:47;27.55;;;25.25;;
72813;SDS011;60945;48.516;-2.768;2023-03-01T12:32:22;20.08;;;17.88;;
72813;SDS011;60945;48.516;-2.768;2023-03-01T12:35:21;30.25;;;27.77;;
72813;SDS011;60945;48.516;-2.768;2023-03-01T12:40:43;20.35;;;17.77;;
72813;SDS011;60945;48.516;-2.768;2023-03-01T12:43:40;22.95;;;17.85;;
72813;SDS011;60945;48.516;-2.768;2023-03-01T12:49:12;21.95;;;19.42;;
72813;SDS011;60945;48.516;-2.768;2023-03-01T12:51:51;19.38;;;17.33;;
72813;SDS011;60945;48.516;-2.768;2023-03-01T12:54:35;24.40;;;21.90;;
72813;SDS011;60945;48.516;-2.768;2023-03-01T12:57:26;25.70;;;23.38;;
72813;SDS011;60945;48.516;-2.768;2023-03-01T13:02:23;20.23;;;18.13;;
72813;SDS011;60945;48.516;-2.768;2023-03-01T13:10:04;20.17;;;17.65;;
72813;SDS011;60945;48.516;-2.768;2023-03-01T13:12:52;19.02;;;16.92;;
72813;SDS011;60945;48.516;-2.768;2023-03-01T13:20:24;19.52;;;17.45;;
72813;SDS011;60945;48.516;-2.768;2023-03-01T13:23:23;23.00;;;18.75;;
72813;SDS011;60945;48.516;-2.768;2023-03-01T13:26:02;21.20;;;18.80;;
72813;SDS011;60945;48.516;-2.768;2023-03-01T13:46:52;21.08;;;18.88;;
72813;SDS011;60945;48.516;-2.768;2023-03-01T13:54:53;21.52;;;19.08;;
72813;SDS011;60945;48.516;-2.768;2023-03-01T13:57:21;21.20;;;18.95;;
72813;SDS011;60945;48.516;-2.768;2023-03-01T13:59:51;23.65;;;21.30;;
72813;SDS011;60945;48.516;-2.768;2023-03-01T14:02:16;32.40;;;29.98;;
72813;SDS011;60945;48.516;-2.768;2023-03-01T14:04:44;23.50;;;19.25;;
72813;SDS011;60945;48.516;-2.768;2023-03-01T14:07:22;27.77;;;25.17;;
72813;SDS011;60945;48.516;-2.768;2023-03-01T14:09:58;20.25;;;18.17;;
72813;SDS011;60945;48.516;-2.768;2023-03-01T14:14:56;20.35;;;18.23;;
72813;SDS011;60945;48.516;-2.768;2023-03-01T14:18:10;20.15;;;18.00;;
72813;SDS011;60945;48.516;-2.768;2023-03-01T14:20:43;27.00;;;24.65;;
72813;SDS011;60945;48.516;-2.768;2023-03-01T14:23:18;26.00;;;22.88;;
72813;SDS011;60945;48.516;-2.768;2023-03-01T14:25:55;21.75;;;19.48;;
72813;SDS011;60945;48.516;-2.768;2023-03-01T14:28:28;20.48;;;18.27;;
72813;SDS011;60945;48.516;-2.768;2023-03-01T14:36:25;22.00;;;18.25;;
72813;SDS011;60945;48.516;-2.768;2023-03-01T14:49:01;17.60;;;15.80;;
72813;SDS011;60945;48.516;-2.768;2023-03-01T14:51:35;23.88;;;21.65;;
72813;SDS011;60945;48.516;-2.768;2023-03-01T14:54:03;18.67;;;16.10;;
72813;SDS011;60945;48.516;-2.768;2023-03-01T14:56:44;17.52;;;15.57;;
72813;SDS011;60945;48.516;-2.768;2023-03-01T14:59:11;18.25;;;16.25;;
72813;SDS011;60945;48.516;-2.768;2023-03-01T15:01:36;17.70;;;16.00;;
72813;SDS011;60945;48.516;-2.768;2023-03-01T15:04:02;19.80;;;15.40;;
72813;SDS011;60945;48.516;-2.768;2023-03-01T15:06:29;18.98;;;16.48;;
72813;SDS011;60945;48.516;-2.768;2023-03-01T15:08:55;18.38;;;16.35;;
72813;SDS011;60945;48.516;-2.768;2023-03-01T15:11:27;17.80;;;16.00;;
72813;SDS011;60945;48.516;-2.768;2023-03-01T15:16:30;19.27;;;15.82;;
72813;SDS011;60945;48.516;-2.768;2023-03-01T15:18:58;17.75;;;15.80;;
72813;SDS011;60945;48.516;-2.768;2023-03-01T15:21:30;19.55;;;15.60;;
72813;SDS011;60945;48.516;-2.768;2023-03-01T15:26:44;18.38;;;15.88;;
72813;SDS011;60945;48.516;-2.768;2023-03-01T15:29:23;20.35;;;16.35;;
72813;SDS011;60945;48.516;-2.768;2023-03-01T15:32:04;17.88;;;16.02;;
72813;SDS011;60945;48.516;-2.768;2023-03-01T15:34:43;18.70;;;15.93;;
72813;SDS011;60945;48.516;-2.768;2023-03-01T15:42:45;17.67;;;14.68;;
72813;SDS011;60945;48.516;-2.768;2023-03-01T15:45:21;19.00;;;15.18;;
72813;SDS011;60945;48.516;-2.768;2023-03-01T15:47:50;19.35;;;15.25;;
72813;SDS011;60945;48.516;-2.768;2023-03-01T15:50:19;21.85;;;19.67;;
72813;SDS011;60945;48.516;-2.768;2023-03-01T15:52:48;24.70;;;22.35;;
72813;SDS011;60945;48.516;-2.768;2023-03-01T15:55:24;19.10;;;15.48;;
72813;SDS011;60945;48.516;-2.768;2023-03-01T15:58:13;19.48;;;17.48;;
72813;SDS011;60945;48.516;-2.768;2023-03-01T16:00:44;19.48;;;14.65;;
72813;SDS011;60945;48.516;-2.768;2023-03-01T16:03:10;24.08;;;22.23;;
72813;SDS011;60945;48.516;-2.768;2023-03-01T16:05:37;16.63;;;14.90;;
72813;SDS011;60945;48.516;-2.768;2023-03-01T16:08:06;22.50;;;20.05;;
72813;SDS011;60945;48.516;-2.768;2023-03-01T16:10:32;33.30;;;30.83;;
72813;SDS011;60945;48.516;-2.768;2023-03-01T16:13:00;18.42;;;13.85;;
72813;SDS011;60945;48.516;-2.768;2023-03-01T16:15:27;17.30;;;13.93;;
72813;SDS011;60945;48.516;-2.768;2023-03-01T16:17:54;21.48;;;16.20;;
72813;SDS011;60945;48.516;-2.768;2023-03-01T16:20:21;15.80;;;13.93;;
72813;SDS011;60945;48.516;-2.768;2023-03-01T16:22:47;15.75;;;13.38;;
72813;SDS011;60945;48.516;-2.768;2023-03-01T16:25:14;19.52;;;13.93;;
72813;SDS011;60945;48.516;-2.768;2023-03-01T16:27:42;19.15;;;17.48;;
72813;SDS011;60945;48.516;-2.768;2023-03-01T16:30:09;26.00;;;23.85;;
72813;SDS011;60945;48.516;-2.768;2023-03-01T16:32:39;18.85;;;15.07;;
72813;SDS011;60945;48.516;-2.768;2023-03-01T16:35:07;21.75;;;19.75;;
72813;SDS011;60945;48.516;-2.768;2023-03-01T16:37:34;17.02;;;15.15;;
72813;SDS011;60945;48.516;-2.768;2023-03-01T16:40:03;15.48;;;11.88;;
72813;SDS011;60945;48.516;-2.768;2023-03-01T16:42:33;17.70;;;16.10;;
72813;SDS011;60945;48.516;-2.768;2023-03-01T16:44:59;20.52;;;18.55;;
72813;SDS011;60945;48.516;-2.768;2023-03-01T16:47:26;14.63;;;12.68;;
72813;SDS011;60945;48.516;-2.768;2023-03-01T16:49:52;13.80;;;12.02;;